Time;durP1;ratioP1;P1;durP2;ratioP2;P2;SDS_P1;SDS_P2;PMS_P1;PMS_P2;Temp;Humidity;BMP_temperature;BMP_pressure;BME280_temperature;BME280_humidity;BME280_pressure;Samples;Min_cycle;Max_cycle;Signal;HPM_P1;HPM_P2
2023/06/18 00:00:41;;;;;;;8.18;4.90;;;;;;;23.04;42.37;101054.63;3587643;39;20103;-70
2023/06/18 00:03:07;;;;;;;6.93;4.93;;;;;;;23.01;42.53;101054.09;3583357;39;20067;-70
2023/06/18 00:05:32;;;;;;;6.93;4.82;;;;;;;22.97;42.83;101056.34;3587665;39;20062;-70
2023/06/18 00:07:58;;;;;;;7.00;4.75;;;;;;;22.94;42.94;101054.78;3587799;39;20450;-69
2023/06/18 00:10:24;;;;;;;5.20;4.68;;;;;;;22.93;42.91;101046.72;3588503;39;20048;-70
2023/06/18 00:12:50;;;;;;;5.10;4.57;;;;;;;22.90;43.66;101044.31;3578203;39;20399;-70
2023/06/18 00:15:16;;;;;;;5.95;5.25;;;;;;;22.78;43.11;101037.44;3583056;39;20055;-70
2023/06/18 00:17:41;;;;;;;5.30;4.80;;;;;;;22.75;43.32;101038.63;3583866;39;20321;-70
2023/06/18 00:20:08;;;;;;;8.48;5.45;;;;;;;22.68;42.84;101032.97;3581424;39;20432;-69
2023/06/18 00:22:38;;;;;;;6.95;5.32;;;;;;;22.77;43.62;101044.81;3591683;39;20548;-70
2023/06/18 00:25:08;;;;;;;7.15;5.45;;;;;;;22.76;43.87;101034.84;3583509;39;20056;-70
2023/06/18 00:27:33;;;;;;;5.55;4.97;;;;;;;22.73;43.72;101039.81;3579805;39;20066;-70
2023/06/18 00:30:00;;;;;;;6.72;6.10;;;;;;;22.68;44.54;101035.72;3579192;39;20528;-70
2023/06/18 00:32:26;;;;;;;6.72;5.85;;;;;;;22.67;44.17;101035.84;3580660;39;20126;-68
2023/06/18 00:34:53;;;;;;;6.80;6.13;;;;;;;22.65;45.31;101037.94;3580413;39;20469;-68
2023/06/18 00:37:20;;;;;;;8.55;5.85;;;;;;;22.43;45.21;101003.81;3583514;39;20059;-68
2023/06/18 00:39:46;;;;;;;6.28;5.60;;;;;;;22.58;45.12;101025.91;3589040;39;20551;-68
2023/06/18 00:42:13;;;;;;;6.38;5.40;;;;;;;22.52;45.69;101021.09;3584226;39;20048;-67
2023/06/18 00:44:41;;;;;;;5.93;5.32;;;;;;;22.18;44.55;100964.53;3578987;39;20064;-67
2023/06/18 00:47:12;;;;;;;8.30;5.63;;;;;;;22.47;45.87;101017.00;3578298;39;20059;-68
2023/06/18 00:49:40;;;;;;;5.68;5.10;;;;;;;22.43;46.17;101015.63;3587709;39;20148;-68
2023/06/18 00:52:12;;;;;;;6.90;5.28;;;;;;;22.14;46.63;100974.09;3588125;39;20671;-68
2023/06/18 00:54:41;;;;;;;6.28;5.15;;;;;;;22.17;45.94;100991.06;3588686;39;20059;-67
2023/06/18 00:57:08;;;;;;;6.45;5.15;;;;;;;22.32;46.68;101007.69;3583351;39;20071;-67
2023/06/18 00:59:37;;;;;;;5.47;4.97;;;;;;;22.31;46.41;101014.22;3583960;39;20060;-68
2023/06/18 01:02:03;;;;;;;7.18;5.38;;;;;;;22.27;46.88;101003.78;3586672;39;20409;-67
2023/06/18 01:04:35;;;;;;;5.82;5.20;;;;;;;21.81;46.59;100934.78;3590594;39;20410;-67
2023/06/18 01:07:03;;;;;;;5.72;5.10;;;;;;;22.18;47.27;101003.72;3589737;39;20051;-68
2023/06/18 01:09:30;;;;;;;7.45;5.00;;;;;;;22.12;47.27;101009.84;3589061;39;20239;-67
2023/06/18 01:12:00;;;;;;;5.88;5.28;;;;;;;22.07;47.08;101005.88;3584216;39;20140;-68
2023/06/18 01:14:28;;;;;;;6.10;5.53;;;;;;;22.08;47.59;101013.09;3587575;39;20036;-66
2023/06/18 01:16:57;;;;;;;5.57;5.07;;;;;;;22.05;48.33;101007.94;3587131;39;20044;-67
2023/06/18 01:19:56;;;;;;;5.70;5.03;;;;;;;21.97;47.90;101011.47;3590190;39;20059;-68
2023/06/18 01:22:37;;;;;;;8.90;5.57;;;;;;;21.91;48.74;101001.19;3580594;39;20410;-69
2023/06/18 01:25:08;;;;;;;5.85;5.00;;;;;;;21.87;48.57;100997.94;3580812;40;20090;-70
2023/06/18 01:27:43;;;;;;;8.18;5.68;;;;;;;21.46;48.71;100933.94;3584241;39;20052;-69
2023/06/18 01:30:12;;;;;;;8.50;5.70;;;;;;;21.77;48.44;100992.59;3587962;39;20044;-67
2023/06/18 01:32:39;;;;;;;7.20;5.30;;;;;;;21.75;49.22;100996.50;3589880;39;20388;-67
2023/06/18 01:35:08;;;;;;;6.95;5.40;;;;;;;21.72;48.67;100996.81;3587169;39;20375;-67
2023/06/18 01:38:19;;;;;;;6.18;5.57;;;;;;;21.67;48.60;100996.47;3591552;39;20126;-67
2023/06/18 01:41:26;;;;;;;6.97;5.85;;;;;;;21.59;48.59;100989.06;3580948;39;20406;-68
2023/06/18 01:44:01;;;;;;;7.25;5.50;;;;;;;21.58;49.05;100989.25;3559285;39;20052;-68
2023/06/18 01:46:29;;;;;;;7.65;5.45;;;;;;;21.51;48.73;100978.09;3587226;39;20279;-67
2023/06/18 01:49:04;;;;;;;7.93;5.88;;;;;;;21.47;48.71;100980.31;3585795;39;20066;-68
2023/06/18 01:51:33;;;;;;;5.85;5.35;;;;;;;21.39;50.26;100985.72;3587301;39;20488;-68
2023/06/18 01:54:03;;;;;;;6.32;5.72;;;;;;;21.35;50.30;100995.25;3590181;39;20622;-68
2023/06/18 01:56:30;;;;;;;6.35;5.43;;;;;;;21.22;50.39;100979.25;3583846;39;20086;-67
2023/06/18 01:58:56;;;;;;;6.43;5.82;;;;;;;21.26;50.18;100988.00;3583581;39;20052;-68
2023/06/18 02:01:22;;;;;;;7.65;5.50;;;;;;;20.98;50.74;100949.84;3586416;39;20101;-68
2023/06/18 02:03:48;;;;;;;6.15;5.55;;;;;;;21.14;51.51;100992.00;3585284;39;20052;-69
2023/06/18 02:06:14;;;;;;;7.63;5.93;;;;;;;21.09;50.82;100981.53;3589999;39;20295;-68
2023/06/18 02:08:41;;;;;;;6.50;5.90;;;;;;;21.02;51.03;100977.72;3583614;39;20119;-67
2023/06/18 02:11:08;;;;;;;8.60;5.85;;;;;;;20.86;51.14;100959.31;3580629;39;20052;-68
2023/06/18 02:13:34;;;;;;;6.85;6.15;;;;;;;20.92;51.39;100972.34;3587764;39;20160;-67
2023/06/18 02:16:00;;;;;;;9.23;6.10;;;;;;;20.86;51.08;100970.25;3590353;39;21369;-66
2023/06/18 02:18:25;;;;;;;10.77;6.82;;;;;;;20.83;51.65;100973.28;3591065;39;20047;-67
2023/06/18 02:20:51;;;;;;;7.68;6.07;;;;;;;20.77;51.85;100969.34;3593233;39;20289;-66
2023/06/18 02:23:17;;;;;;;8.45;5.70;;;;;;;20.75;52.38;100976.81;3592699;39;20063;-67
2023/06/18 02:25:44;;;;;;;7.63;5.93;;;;;;;20.71;52.01;100969.09;3585761;39;20064;-67
2023/06/18 02:28:11;;;;;;;7.78;6.18;;;;;;;20.65;52.96;100973.34;3586297;39;20064;-68
2023/06/18 02:30:37;;;;;;;7.90;6.35;;;;;;;20.20;52.54;100896.91;3589399;39;20055;-67
2023/06/18 02:33:07;;;;;;;6.97;6.28;;;;;;;20.56;52.83;100968.81;3586112;39;20056;-68
2023/06/18 02:35:34;;;;;;;7.85;5.85;;;;;;;20.48;52.24;100953.16;3590257;39;20055;-68
2023/06/18 02:37:59;;;;;;;7.35;6.55;;;;;;;20.45;53.04;100958.91;3592127;39;20209;-66
2023/06/18 02:40:25;;;;;;;7.22;6.50;;;;;;;20.40;53.39;100951.22;3577864;40;20048;-68
2023/06/18 02:42:52;;;;;;;6.95;6.25;;;;;;;20.33;53.44;100947.41;3579554;39;20056;-65
2023/06/18 02:45:28;;;;;;;7.13;6.32;;;;;;;20.34;53.82;100956.44;3586038;39;20059;-67
2023/06/18 02:47:54;;;;;;;8.18;6.47;;;;;;;20.31;53.36;100951.28;3585519;39;20052;-66
2023/06/18 02:50:20;;;;;;;7.68;6.95;;;;;;;20.26;53.35;100962.66;3593198;39;20087;-65
2023/06/18 02:52:46;;;;;;;7.63;6.82;;;;;;;20.26;53.61;100959.06;3588140;39;20075;-65
2023/06/18 02:55:12;;;;;;;7.30;6.60;;;;;;;20.23;53.27;100959.38;3589593;39;20051;-66
2023/06/18 02:57:40;;;;;;;11.20;7.30;;;;;;;20.20;53.30;100965.16;3582051;39;20058;-66
2023/06/18 03:00:11;;;;;;;9.57;7.18;;;;;;;20.15;53.26;100947.38;3579885;39;20056;-66
2023/06/18 03:02:38;;;;;;;7.75;6.95;;;;;;;20.04;54.66;100933.94;3583358;39;20174;-66
2023/06/18 03:05:04;;;;;;;8.88;7.32;;;;;;;20.00;54.47;100928.94;3584074;39;20056;-66
2023/06/18 03:07:30;;;;;;;9.00;7.45;;;;;;;20.11;54.32;100956.03;3591904;39;20128;-66
2023/06/18 03:09:56;;;;;;;8.15;7.10;;;;;;;;;;3587832;39;20067;-66
2023/06/18 03:12:21;;;;;;;7.85;7.07;;;;;;;19.81;54.61;100927.19;3583161;39;20060;-66
2023/06/18 03:14:47;;;;;;;9.35;7.00;;;;;;;20.01;54.75;100961.53;3588033;39;20067;-66
2023/06/18 03:17:13;;;;;;;8.88;7.22;;;;;;;19.98;54.42;100963.69;3581110;39;20409;-66
2023/06/18 03:19:39;;;;;;;8.82;8.02;;;;;;;19.98;54.97;100964.59;3585212;39;20449;-66
2023/06/18 03:22:05;;;;;;;8.27;7.30;;;;;;;19.90;54.96;100954.41;3585595;39;20442;-65
2023/06/18 03:24:33;;;;;;;8.93;7.80;;;;;;;19.88;54.37;100958.31;3590654;39;20424;-67
2023/06/18 03:26:59;;;;;;;8.50;7.50;;;;;;;19.82;54.27;100961.63;3585947;39;20064;-65
2023/06/18 03:29:26;;;;;;;10.07;7.90;;;;;;;19.76;54.74;100956.78;3584203;39;20078;-65
2023/06/18 03:31:54;;;;;;;8.63;7.72;;;;;;;19.76;55.04;100962.22;3585727;39;20055;-68
2023/06/18 03:34:20;;;;;;;8.60;7.72;;;;;;;19.79;54.73;100962.81;3585992;39;20846;-66
2023/06/18 03:36:48;;;;;;;11.52;8.30;;;;;;;19.79;54.39;100960.09;3577187;39;20050;-66
2023/06/18 03:39:15;;;;;;;10.38;8.05;;;;;;;19.80;54.38;100961.81;3589789;39;20047;-66
2023/06/18 03:41:41;;;;;;;10.27;8.10;;;;;;;19.68;55.13;100942.03;3583756;39;20056;-67
2023/06/18 03:44:07;;;;;;;9.60;7.95;;;;;;;19.79;54.98;100956.47;3584391;39;20182;-67
2023/06/18 03:46:34;;;;;;;9.63;8.35;;;;;;;19.71;54.44;100949.06;3590689;39;20049;-67
2023/06/18 03:49:00;;;;;;;9.60;8.50;;;;;;;19.80;53.99;100959.06;3579762;40;20136;-67
2023/06/18 03:51:26;;;;;;;10.43;8.55;;;;;;;19.81;54.31;100962.66;3586505;39;20047;-65
2023/06/18 03:53:52;;;;;;;9.23;8.32;;;;;;;19.80;55.81;100955.50;3584856;39;20091;-66
2023/06/18 03:56:21;;;;;;;9.13;8.23;;;;;;;19.78;55.19;100949.31;3587507;39;20086;-66
2023/06/18 03:58:48;;;;;;;10.55;8.70;;;;;;;19.73;55.77;100946.16;3589278;39;20055;-66
2023/06/18 04:01:14;;;;;;;8.98;7.93;;;;;;;19.90;54.53;100975.38;3586267;39;20757;-67
2023/06/18 04:03:40;;;;;;;9.55;8.55;;;;;;;19.59;53.80;100929.28;3588274;39;20113;-65
2023/06/18 04:06:07;;;;;;;10.02;8.57;;;;;;;19.96;54.01;100985.69;3583646;39;20255;-65
2023/06/18 04:08:34;;;;;;;9.63;8.30;;;;;;;19.93;54.55;100986.00;3585753;39;20376;-68
2023/06/18 04:11:00;;;;;;;9.45;7.88;;;;;;;19.91;54.62;100982.56;3581384;39;20141;-66
2023/06/18 04:13:28;;;;;;;10.63;7.85;;;;;;;19.88;54.19;100986.44;3586533;39;20109;-66
2023/06/18 04:15:54;;;;;;;9.77;8.77;;;;;;;19.88;54.81;100989.16;3585693;39;20055;-66
2023/06/18 04:18:20;;;;;;;10.48;8.55;;;;;;;19.82;54.76;100973.44;3587502;39;20396;-66
2023/06/18 04:20:47;;;;;;;9.57;8.63;;;;;;;19.80;54.32;100969.97;3589999;39;20052;-66
2023/06/18 04:23:13;;;;;;;11.15;8.48;;;;;;;19.88;54.33;100980.97;3582091;39;20056;-67
2023/06/18 04:25:39;;;;;;;9.40;8.50;;;;;;;19.87;54.50;100981.16;3587080;39;20128;-66
2023/06/18 04:28:05;;;;;;;9.18;8.27;;;;;;;19.88;54.54;100988.31;3583149;39;20060;-68
2023/06/18 04:30:31;;;;;;;9.73;8.63;;;;;;;19.91;53.86;100982.56;3590260;39;20055;-66
2023/06/18 04:32:56;;;;;;;9.70;8.70;;;;;;;19.29;53.35;100866.88;3582342;39;20121;-66
2023/06/18 04:35:22;;;;;;;11.52;8.75;;;;;;;19.97;52.75;100981.94;3583670;39;20291;-65
2023/06/18 04:37:49;;;;;;;9.43;8.48;;;;;;;20.00;52.71;100970.72;3572296;40;20312;-67
2023/06/18 04:40:15;;;;;;;9.90;8.98;;;;;;;20.02;53.20;100978.78;3585801;39;20386;-65
2023/06/18 04:42:40;;;;;;;11.35;9.15;;;;;;;20.03;52.67;100970.41;3588757;39;20136;-67
2023/06/18 04:45:08;;;;;;;11.95;8.90;;;;;;;20.05;52.26;100971.13;3584821;40;20180;-66
2023/06/18 04:47:34;;;;;;;10.40;8.77;;;;;;;20.07;53.76;100971.81;3586930;40;20052;-66
2023/06/18 04:50:02;;;;;;;9.57;8.45;;;;;;;20.11;54.05;100973.25;3586065;39;20059;-65
2023/06/18 04:52:27;;;;;;;9.60;8.70;;;;;;;20.14;53.86;100969.38;3587071;39;20504;-66
2023/06/18 04:54:53;;;;;;;11.25;10.15;;;;;;;20.13;54.01;100965.75;3585191;39;20047;-65
2023/06/18 04:57:19;;;;;;;11.13;8.90;;;;;;;20.18;52.79;100979.81;3587946;39;20134;-66
2023/06/18 04:59:46;;;;;;;13.52;8.90;;;;;;;20.25;52.71;100981.94;3591291;39;20344;-66
2023/06/18 05:02:12;;;;;;;10.40;9.38;;;;;;;20.31;53.26;100984.06;3584754;39;20364;-65
2023/06/18 05:04:38;;;;;;;10.65;9.50;;;;;;;20.33;52.27;100988.34;3586628;39;20170;-66
2023/06/18 05:07:04;;;;;;;11.80;9.65;;;;;;;20.36;51.22;100978.97;3588305;39;20048;-66
2023/06/18 05:09:30;;;;;;;11.05;9.82;;;;;;;20.39;51.94;100978.66;3583668;39;20535;-66
2023/06/18 05:11:56;;;;;;;10.73;9.60;;;;;;;20.44;51.94;100989.13;3586289;39;20071;-65
2023/06/18 05:14:22;;;;;;;10.40;9.30;;;;;;;20.50;51.26;100989.38;3588514;39;20480;-66
2023/06/18 05:16:48;;;;;;;10.02;8.90;;;;;;;20.57;50.95;100989.63;3591237;39;20099;-65
2023/06/18 05:19:13;;;;;;;11.25;9.18;;;;;;;20.61;51.18;100980.09;3589193;39;20055;-66
2023/06/18 05:21:39;;;;;;;10.55;9.45;;;;;;;20.74;50.33;100991.50;3588315;39;20067;-66
2023/06/18 05:24:07;;;;;;;10.57;9.48;;;;;;;20.74;49.78;100974.25;3585089;39;20059;-67
2023/06/18 05:26:34;;;;;;;10.90;9.80;;;;;;;20.88;49.23;100984.63;3586041;39;20048;-66
2023/06/18 05:29:00;;;;;;;10.57;9.48;;;;;;;20.92;48.78;100980.56;3584580;39;20064;-66
2023/06/18 05:31:28;;;;;;;10.80;9.75;;;;;;;21.11;47.75;101001.38;3585371;39;20056;-66
2023/06/18 05:33:54;;;;;;;12.88;9.68;;;;;;;21.22;48.92;100992.06;3583818;39;20125;-66
2023/06/18 05:36:24;;;;;;;10.70;9.65;;;;;;;21.33;48.21;101002.72;3586030;39;20140;-66
2023/06/18 05:38:50;;;;;;;12.93;9.13;;;;;;;21.44;47.11;101001.63;3584881;39;20350;-64
2023/06/18 05:41:15;;;;;;;11.63;9.32;;;;;;;21.52;46.16;100997.06;3586444;39;20055;-66
2023/06/18 05:43:41;;;;;;;9.63;8.70;;;;;;;21.69;45.82;100994.41;3584485;39;20064;-66
2023/06/18 05:46:07;;;;;;;10.75;8.57;;;;;;;21.82;46.73;101000.31;3585875;39;20855;-65
2023/06/18 05:48:32;;;;;;;9.55;8.65;;;;;;;21.91;45.96;100996.56;3586354;39;20074;-65
2023/06/18 05:50:58;;;;;;;11.25;8.98;;;;;;;22.02;45.24;100996.28;3585692;39;20080;-66
2023/06/18 05:53:23;;;;;;;10.90;8.32;;;;;;;22.15;45.75;101000.44;3588631;39;20377;-66
2023/06/18 05:55:49;;;;;;;8.60;7.65;;;;;;;21.63;45.48;100894.72;3585477;39;20050;-67
2023/06/18 05:58:15;;;;;;;8.60;7.70;;;;;;;22.37;44.08;101002.59;3585004;39;20061;-68
2023/06/18 06:00:41;;;;;;;8.93;7.65;;;;;;;22.41;42.87;100993.00;3584145;39;20048;-69
2023/06/18 06:03:07;;;;;;;8.77;7.80;;;;;;;22.62;42.34;101011.72;3585671;39;20489;-68
2023/06/18 06:05:32;;;;;;;9.23;7.68;;;;;;;22.31;41.86;100929.31;3589678;39;20320;-68
2023/06/18 06:07:58;;;;;;;10.98;7.55;;;;;;;22.89;42.68;100995.97;3585797;39;21864;-68
2023/06/18 06:10:23;;;;;;;9.23;7.35;;;;;;;23.08;41.83;101000.28;3577111;39;20064;-68
2023/06/18 06:12:49;;;;;;;7.15;6.45;;;;;;;22.54;40.96;100887.53;3587851;39;20059;-69
2023/06/18 06:15:15;;;;;;;8.18;6.90;;;;;;;23.26;41.23;100984.50;3588610;39;20625;-69
2023/06/18 06:17:41;;;;;;;9.88;6.70;;;;;;;23.55;41.24;101008.63;3588223;39;20143;-69
2023/06/18 06:20:07;;;;;;;6.95;6.22;;;;;;;23.72;40.12;101008.59;3590446;39;20067;-70
2023/06/18 06:22:33;;;;;;;8.38;5.47;;;;;;;23.86;40.31;101011.47;3585404;39;20044;-69
2023/06/18 06:24:58;;;;;;;6.10;5.30;;;;;;;23.96;40.22;101013.16;3589127;39;20059;-69
2023/06/18 06:27:24;;;;;;;5.88;5.28;;;;;;;24.03;39.45;101014.16;3585232;39;20376;-70
2023/06/18 06:29:50;;;;;;;6.97;5.40;;;;;;;24.01;37.64;101019.84;3583411;39;20063;-69
2023/06/18 06:32:15;;;;;;;5.85;4.93;;;;;;;23.98;37.88;101031.19;3585659;39;20099;-69
2023/06/18 06:34:41;;;;;;;6.65;4.50;;;;;;;23.95;38.60;101069.97;3583615;39;20424;-69
2023/06/18 06:37:07;;;;;;;5.53;5.03;;;;;;;23.75;38.96;101047.53;3582441;39;20063;-68
2023/06/18 06:39:33;;;;;;;9.55;4.93;;;;;;;23.79;38.46;101070.88;3585134;39;20067;-69
2023/06/18 06:41:59;;;;;;;6.13;4.85;;;;;;;23.75;39.40;101085.97;3584587;39;20044;-69
2023/06/18 06:44:24;;;;;;;5.55;4.75;;;;;;;23.66;39.50;101075.13;3581897;39;20062;-69
2023/06/18 06:46:50;;;;;;;6.97;5.10;;;;;;;23.58;39.52;101073.28;3586636;39;20054;-68
2023/06/18 06:49:15;;;;;;;7.32;5.18;;;;;;;23.54;40.00;101078.25;3585706;39;20129;-68
2023/06/18 06:51:41;;;;;;;8.07;5.28;;;;;;;23.54;40.16;101078.25;3588197;39;20055;-69
2023/06/18 06:54:09;;;;;;;5.93;5.40;;;;;;;23.51;39.51;101077.75;3586507;39;20060;-69
2023/06/18 06:56:35;;;;;;;6.20;5.63;;;;;;;23.41;40.04;101064.22;3583462;39;20059;-69
2023/06/18 06:59:01;;;;;;;5.85;5.25;;;;;;;23.56;40.32;101069.84;3584448;39;20067;-69
2023/06/18 07:01:27;;;;;;;7.20;6.45;;;;;;;23.58;40.18;101068.66;3583998;39;20074;-69
2023/06/18 07:03:52;;;;;;;7.93;5.93;;;;;;;23.61;40.09;101073.78;3581481;39;20060;-69
2023/06/18 07:06:18;;;;;;;11.48;6.40;;;;;;;23.59;40.45;101080.47;3573150;39;20055;-69
2023/06/18 07:08:44;;;;;;;9.43;6.13;;;;;;;23.58;40.74;101065.91;3582586;39;20110;-69
2023/06/18 07:11:10;;;;;;;10.27;6.78;;;;;;;23.63;40.67;101065.41;3582410;39;20071;-69
2023/06/18 07:13:36;;;;;;;7.05;6.30;;;;;;;23.71;41.31;101072.78;3573552;40;20058;-69
2023/06/18 07:16:02;;;;;;;9.73;6.50;;;;;;;23.76;41.17;101076.72;3581443;40;20059;-68
2023/06/18 07:18:27;;;;;;;7.55;6.30;;;;;;;23.73;40.97;101071.56;3575543;39;20064;-69
2023/06/18 07:20:53;;;;;;;7.45;6.63;;;;;;;23.75;40.92;101074.13;3581921;39;20067;-69
2023/06/18 07:23:18;;;;;;;8.52;6.93;;;;;;;23.71;41.57;101075.50;3580494;39;20091;-68
2023/06/18 07:25:45;;;;;;;7.07;6.20;;;;;;;23.80;41.91;101074.47;3584344;39;20347;-69
2023/06/18 07:28:10;;;;;;;6.60;5.90;;;;;;;23.88;41.82;101073.59;3583467;40;20060;-69
2023/06/18 07:30:36;;;;;;;9.82;6.53;;;;;;;23.93;41.78;101077.53;3583035;40;20067;-69
2023/06/18 07:33:02;;;;;;;8.13;6.53;;;;;;;24.00;41.95;101069.44;3584343;39;20074;-68
2023/06/18 07:35:27;;;;;;;8.07;6.00;;;;;;;24.03;41.66;101060.84;3584402;40;20051;-68
2023/06/18 07:37:53;;;;;;;6.30;5.70;;;;;;;24.15;42.04;101064.91;3582543;39;20056;-68
2023/06/18 07:40:18;;;;;;;7.00;6.30;;;;;;;24.23;41.83;101062.16;3583008;39;20071;-69
2023/06/18 07:42:44;;;;;;;6.60;5.97;;;;;;;24.36;41.93;101060.69;3582393;40;20059;-69
2023/06/18 07:45:10;;;;;;;7.88;5.80;;;;;;;24.47;42.28;101063.09;3583163;40;20163;-69
2023/06/18 07:47:36;;;;;;;8.93;5.90;;;;;;;24.61;42.33;101066.94;3581603;40;20416;-68
2023/06/18 07:50:02;;;;;;;11.88;6.28;;;;;;;24.72;41.92;101064.66;3580921;40;20047;-69
2023/06/18 07:52:28;;;;;;;8.88;6.85;;;;;;;24.78;41.29;101074.91;3581656;39;20060;-68
2023/06/18 07:54:53;;;;;;;11.77;5.93;;;;;;;24.85;41.13;101063.19;3569114;40;20132;-68
2023/06/18 07:57:19;;;;;;;8.18;5.68;;;;;;;24.95;41.05;101061.06;3581924;40;20055;-68
2023/06/18 07:59:45;;;;;;;7.45;6.05;;;;;;;25.05;42.11;101061.66;3588640;39;20260;-68
2023/06/18 08:02:11;;;;;;;10.35;5.70;;;;;;;25.11;41.18;101060.91;3585326;39;20431;-68
2023/06/18 08:04:37;;;;;;;8.27;5.93;;;;;;;24.72;40.61;100995.91;3581119;39;20051;-69
2023/06/18 08:07:03;;;;;;;6.25;5.18;;;;;;;25.14;41.03;101056.97;3583455;39;20074;-68
2023/06/18 08:09:29;;;;;;;6.50;5.60;;;;;;;25.20;41.61;101054.34;3584574;39;20060;-68
2023/06/18 08:11:55;;;;;;;6.07;5.57;;;;;;;25.39;42.04;101052.13;3584224;39;20059;-69
2023/06/18 08:14:21;;;;;;;10.25;5.90;;;;;;;25.54;41.06;101053.00;3584604;39;20070;-69
2023/06/18 08:16:46;;;;;;;6.00;5.40;;;;;;;25.59;41.47;101053.28;3588433;39;20067;-69
2023/06/18 08:19:12;;;;;;;8.73;5.78;;;;;;;25.74;41.14;101057.97;3586116;39;20322;-69
2023/06/18 08:21:37;;;;;;;6.38;5.40;;;;;;;25.80;40.92;101040.69;3581435;39;20067;-69
2023/06/18 08:24:03;;;;;;;9.52;5.95;;;;;;;26.04;40.99;101047.81;3584184;39;20052;-69
2023/06/18 08:26:29;;;;;;;6.07;5.30;;;;;;;26.07;40.72;101053.84;3584008;39;20060;-69
2023/06/18 08:28:55;;;;;;;6.78;5.40;;;;;;;25.93;39.64;101041.75;3583914;39;20543;-69
2023/06/18 08:31:21;;;;;;;6.72;5.38;;;;;;;25.76;40.09;101026.44;3584572;39;20071;-69
2023/06/18 08:33:49;;;;;;;5.72;5.22;;;;;;;25.95;42.21;101047.09;3586303;39;20069;-70
2023/06/18 08:36:17;;;;;;;25.20;13.70;;;;;;;25.95;41.29;101029.72;3575479;39;20057;-68
2023/06/18 08:38:43;;;;;;;8.48;6.57;;;;;;;26.03;41.11;101040.63;3588464;39;20082;-69
2023/06/18 08:41:11;;;;;;;6.90;5.47;;;;;;;25.74;41.24;101000.13;3585632;39;20064;-69
2023/06/18 08:43:37;;;;;;;8.10;5.57;;;;;;;25.88;40.89;101047.00;3582483;39;20082;-69
2023/06/18 08:46:13;;;;;;;5.03;4.63;;;;;;;25.77;41.68;101046.56;3585048;39;20054;-69
2023/06/18 08:49:00;;;;;;;6.78;5.70;;;;;;;25.61;41.33;101039.34;3581758;39;20064;-69
2023/06/18 08:51:26;;;;;;;5.82;5.20;;;;;;;25.43;41.61;101014.91;3582300;39;20368;-69
2023/06/18 08:54:10;;;;;;;6.30;5.70;;;;;;;25.54;41.31;101044.75;3583511;39;20051;-68
2023/06/18 08:56:46;;;;;;;5.78;5.28;;;;;;;25.46;41.78;101047.56;3580529;39;20176;-69
2023/06/18 08:59:13;;;;;;;5.53;4.97;;;;;;;25.44;42.83;101044.16;3579660;39;20580;-71
2023/06/18 09:01:42;;;;;;;8.27;6.00;;;;;;;25.44;42.96;101049.69;3580699;39;20059;-68
2023/06/18 09:04:10;;;;;;;5.97;5.38;;;;;;;25.40;42.98;101043.66;3582796;39;20415;-69
2023/06/18 09:06:36;;;;;;;6.22;5.70;;;;;;;24.86;42.79;100969.50;3584634;39;20052;-69
2023/06/18 09:09:02;;;;;;;8.15;5.47;;;;;;;25.28;42.77;101047.06;3581417;39;20417;-69
2023/06/18 09:11:30;;;;;;;5.40;4.90;;;;;;;25.31;43.57;101046.69;3583041;39;20068;-71
2023/06/18 09:13:56;;;;;;;6.57;5.97;;;;;;;25.33;43.06;101050.13;3581634;39;20044;-68
2023/06/18 09:16:22;;;;;;;6.38;5.78;;;;;;;25.18;43.57;101017.94;3570247;39;20055;-68
2023/06/18 09:18:48;;;;;;;6.72;5.85;;;;;;;25.49;43.85;101049.94;3584566;39;20131;-69
2023/06/18 09:21:40;;;;;;;6.88;6.20;;;;;;;25.52;43.52;101048.72;3569725;39;20374;-69
2023/06/18 09:24:19;;;;;;;7.57;6.10;;;;;;;25.50;42.98;101059.94;3584540;39;20052;-68
2023/06/18 09:26:45;;;;;;;7.30;5.93;;;;;;;25.51;43.42;101049.78;3592570;39;20092;-67
2023/06/18 09:29:12;;;;;;;8.57;6.43;;;;;;;25.43;44.03;101056.19;3584771;39;20060;-69
2023/06/18 09:31:41;;;;;;;6.65;5.95;;;;;;;25.44;44.55;101058.78;3584634;39;20611;-69
2023/06/18 09:34:20;;;;;;;8.63;6.68;;;;;;;25.26;43.09;101032.66;3578635;39;20084;-67
2023/06/18 09:36:48;;;;;;;8.75;6.63;;;;;;;25.33;44.76;101047.34;3586917;39;20390;-68
2023/06/18 09:39:24;;;;;;;7.90;6.60;;;;;;;25.36;45.03;101060.75;3580674;39;20122;-68
2023/06/18 09:41:53;;;;;;;7.20;6.50;;;;;;;25.34;45.42;101055.44;3586538;39;20055;-67
2023/06/18 09:44:22;;;;;;;7.30;6.38;;;;;;;25.18;45.52;101028.94;3581807;39;21162;-68
2023/06/18 09:46:56;;;;;;;7.28;6.45;;;;;;;25.00;46.61;100998.09;3579797;39;20112;-69
2023/06/18 09:49:24;;;;;;;7.53;6.57;;;;;;;25.24;47.38;101050.16;3581283;39;20355;-69
2023/06/18 09:51:51;;;;;;;7.95;6.97;;;;;;;25.16;49.24;101064.03;3585281;39;20635;-68
2023/06/18 09:54:17;;;;;;;7.47;6.78;;;;;;;25.05;48.84;101049.81;3584642;39;20443;-71
2023/06/18 09:56:58;;;;;;;7.32;6.45;;;;;;;24.85;50.66;101046.69;3593290;39;20386;-70
2023/06/18 09:59:26;;;;;;;6.22;5.72;;;;;;;24.77;50.65;101047.63;3586579;39;20185;-70
2023/06/18 10:01:54;;;;;;;8.82;6.05;;;;;;;24.69;52.34;101042.16;3571598;40;20060;-69
2023/06/18 10:04:21;;;;;;;7.00;5.85;;;;;;;24.63;52.25;101041.00;3580833;39;20073;-70
2023/06/18 10:06:55;;;;;;;8.95;6.63;;;;;;;24.61;52.46;101037.59;3585630;39;20095;-70
2023/06/18 10:09:23;;;;;;;6.50;5.88;;;;;;;24.55;52.68;101030.06;3580658;39;20401;-70
2023/06/18 10:11:54;;;;;;;7.13;6.53;;;;;;;24.49;54.89;101026.13;3584087;40;20214;-71
2023/06/18 10:14:24;;;;;;;7.53;6.75;;;;;;;24.48;55.12;101020.81;3575015;40;20315;-70
2023/06/18 10:16:54;;;;;;;7.97;6.20;;;;;;;24.42;53.17;101021.53;3578906;39;20382;-71
2023/06/18 10:19:27;;;;;;;6.57;5.97;;;;;;;24.23;55.24;100982.47;3580670;39;20142;-70
2023/06/18 10:22:00;;;;;;;7.00;6.15;;;;;;;24.32;53.57;101008.84;3584101;39;20079;-71
2023/06/18 10:24:39;;;;;;;;;;;;;;;24.36;54.72;100997.50;3584239;39;20052;-70
2023/06/18 10:27:06;;;;;;;6.63;5.95;;;;;;;24.47;56.08;100999.88;3579477;39;20395;-70
2023/06/18 10:29:33;;;;;;;7.15;6.50;;;;;;;24.40;57.18;100974.97;3581231;39;20141;-70
2023/06/18 10:32:05;;;;;;;7.82;6.20;;;;;;;24.51;53.30;100999.31;3579984;39;20298;-69
2023/06/18 10:34:32;;;;;;;8.05;5.75;;;;;;;24.53;51.95;100990.91;3579134;39;20056;-71
2023/06/18 10:37:00;;;;;;;6.20;5.60;;;;;;;24.67;53.50;101003.84;3582671;39;20103;-69
2023/06/18 10:39:28;;;;;;;6.28;5.57;;;;;;;24.43;50.97;100957.31;3585465;39;20056;-70
2023/06/18 10:41:55;;;;;;;6.68;5.78;;;;;;;24.81;53.28;101010.47;3590473;39;20301;-70
2023/06/18 10:44:57;;;;;;;7.03;5.63;;;;;;;24.88;52.17;101005.06;3590157;39;20122;-69
2023/06/18 10:47:32;;;;;;;6.30;5.72;;;;;;;24.73;52.82;100958.28;3581865;39;20060;-68
2023/06/18 10:50:06;;;;;;;7.43;5.72;;;;;;;25.10;51.91;100995.94;3586913;39;20060;-70
2023/06/18 10:52:37;;;;;;;5.78;5.28;;;;;;;25.10;50.74;100984.94;3583545;39;20048;-69
2023/06/18 10:55:09;;;;;;;6.43;5.60;;;;;;;25.38;51.22;101000.88;3585879;39;20057;-69
2023/06/18 10:57:41;;;;;;;6.18;5.60;;;;;;;25.47;49.53;100997.00;3583385;39;20288;-69
2023/06/18 11:00:16;;;;;;;5.95;5.40;;;;;;;25.56;51.20;100992.25;3582040;39;20060;-69
2023/06/18 11:02:44;;;;;;;6.35;5.75;;;;;;;25.63;49.32;100990.47;3581625;39;20068;-69
2023/06/18 11:05:31;;;;;;;5.90;5.40;;;;;;;25.59;50.71;100978.09;3584842;39;20068;-69
2023/06/18 11:08:04;;;;;;;6.20;5.53;;;;;;;25.58;49.53;100985.50;3572974;39;20126;-71
2023/06/18 11:10:47;;;;;;;;;;;;;;;25.52;50.49;100983.50;3582601;39;20052;-70
2023/06/18 11:13:14;;;;;;;6.50;5.90;;;;;;;25.33;52.04;100953.78;3585588;39;20270;-70
2023/06/18 11:16:14;;;;;;;6.35;5.70;;;;;;;25.44;51.41;100972.59;3586131;39;20101;-70
2023/06/18 11:18:42;;;;;;;7.32;5.40;;;;;;;25.51;52.84;100972.69;3583492;40;20129;-70
2023/06/18 11:21:17;;;;;;;5.72;5.25;;;;;;;25.54;52.99;100964.91;3581267;39;20060;-70
2023/06/18 11:23:44;;;;;;;6.20;5.60;;;;;;;25.56;52.34;100962.81;3581136;39;20126;-70
2023/06/18 11:26:19;;;;;;;6.80;5.53;;;;;;;25.57;53.17;100971.94;3581165;40;20067;-70
2023/06/18 11:28:46;;;;;;;7.03;6.20;;;;;;;25.54;52.29;100961.31;3579454;39;20064;-69